sensor_id;sensor_type;location;lat;lon;timestamp;temperature;humidity
7427;DHT22;3755;59.316;18.092;2022-07-23T00:00:44;17.90;99.90
7427;DHT22;3755;59.316;18.092;2022-07-23T00:03:12;17.90;99.90
7427;DHT22;3755;59.316;18.092;2022-07-23T00:05:40;17.80;99.90
7427;DHT22;3755;59.316;18.092;2022-07-23T00:08:09;17.80;99.90
7427;DHT22;3755;59.316;18.092;2022-07-23T00:10:36;17.80;99.90
7427;DHT22;3755;59.316;18.092;2022-07-23T00:13:03;17.80;99.90
7427;DHT22;3755;59.316;18.092;2022-07-23T00:15:30;17.80;99.90
7427;DHT22;3755;59.316;18.092;2022-07-23T00:17:58;17.80;99.90
7427;DHT22;3755;59.316;18.092;2022-07-23T00:20:25;17.70;99.90
7427;DHT22;3755;59.316;18.092;2022-07-23T00:22:54;17.80;99.90
7427;DHT22;3755;59.316;18.092;2022-07-23T00:25:24;17.80;99.90
7427;DHT22;3755;59.316;18.092;2022-07-23T00:27:51;17.80;99.90
7427;DHT22;3755;59.316;18.092;2022-07-23T00:30:19;17.80;99.90
7427;DHT22;3755;59.316;18.092;2022-07-23T00:32:46;17.80;99.90
7427;DHT22;3755;59.316;18.092;2022-07-23T00:35:14;17.80;99.90
7427;DHT22;3755;59.316;18.092;2022-07-23T00:37:42;17.70;99.90
7427;DHT22;3755;59.316;18.092;2022-07-23T00:40:10;17.80;99.90
7427;DHT22;3755;59.316;18.092;2022-07-23T00:42:39;17.70;99.90
7427;DHT22;3755;59.316;18.092;2022-07-23T00:45:07;17.70;99.90
7427;DHT22;3755;59.316;18.092;2022-07-23T00:47:36;17.60;99.90
7427;DHT22;3755;59.316;18.092;2022-07-23T00:50:04;17.60;99.90
7427;DHT22;3755;59.316;18.092;2022-07-23T00:52:32;17.50;99.90
7427;DHT22;3755;59.316;18.092;2022-07-23T00:54:59;17.40;99.90
7427;DHT22;3755;59.316;18.092;2022-07-23T00:57:26;17.20;99.90
7427;DHT22;3755;59.316;18.092;2022-07-23T00:59:55;17.10;99.90
7427;DHT22;3755;59.316;18.092;2022-07-23T01:02:24;17.00;99.90
7427;DHT22;3755;59.316;18.092;2022-07-23T01:04:51;16.90;99.90
7427;DHT22;3755;59.316;18.092;2022-07-23T01:07:19;16.90;99.90
7427;DHT22;3755;59.316;18.092;2022-07-23T01:09:47;16.90;99.90
7427;DHT22;3755;59.316;18.092;2022-07-23T01:12:15;16.80;99.90
7427;DHT22;3755;59.316;18.092;2022-07-23T01:14:42;16.60;99.90
7427;DHT22;3755;59.316;18.092;2022-07-23T01:17:10;16.60;99.90
7427;DHT22;3755;59.316;18.092;2022-07-23T01:19:37;16.60;99.90
7427;DHT22;3755;59.316;18.092;2022-07-23T01:22:05;16.50;99.90
7427;DHT22;3755;59.316;18.092;2022-07-23T01:24:35;16.50;99.90
7427;DHT22;3755;59.316;18.092;2022-07-23T01:27:02;16.40;99.90
7427;DHT22;3755;59.316;18.092;2022-07-23T01:29:31;16.30;99.90
7427;DHT22;3755;59.316;18.092;2022-07-23T01:31:58;16.20;99.90
7427;DHT22;3755;59.316;18.092;2022-07-23T01:34:25;16.10;99.90
7427;DHT22;3755;59.316;18.092;2022-07-23T01:36:52;16.00;99.90
7427;DHT22;3755;59.316;18.092;2022-07-23T01:39:19;15.90;99.90
7427;DHT22;3755;59.316;18.092;2022-07-23T01:41:56;15.80;99.90
7427;DHT22;3755;59.316;18.092;2022-07-23T01:44:23;15.90;99.90
7427;DHT22;3755;59.316;18.092;2022-07-23T01:46:50;15.90;99.90
7427;DHT22;3755;59.316;18.092;2022-07-23T01:49:17;15.80;99.90
7427;DHT22;3755;59.316;18.092;2022-07-23T01:51:44;15.80;99.90
7427;DHT22;3755;59.316;18.092;2022-07-23T01:54:26;15.70;99.90
7427;DHT22;3755;59.316;18.092;2022-07-23T01:56:56;15.60;99.90
7427;DHT22;3755;59.316;18.092;2022-07-23T01:59:24;15.60;99.90
7427;DHT22;3755;59.316;18.092;2022-07-23T02:01:52;15.50;99.90
7427;DHT22;3755;59.316;18.092;2022-07-23T02:04:19;15.40;99.90
7427;DHT22;3755;59.316;18.092;2022-07-23T02:06:47;15.20;99.90
7427;DHT22;3755;59.316;18.092;2022-07-23T02:09:15;15.20;99.90
7427;DHT22;3755;59.316;18.092;2022-07-23T02:11:48;15.20;99.90
7427;DHT22;3755;59.316;18.092;2022-07-23T02:14:19;15.10;99.90
7427;DHT22;3755;59.316;18.092;2022-07-23T02:16:47;15.10;99.90
7427;DHT22;3755;59.316;18.092;2022-07-23T02:19:17;15.10;99.90
7427;DHT22;3755;59.316;18.092;2022-07-23T02:21:45;15.00;99.90
7427;DHT22;3755;59.316;18.092;2022-07-23T02:24:13;15.00;99.90
7427;DHT22;3755;59.316;18.092;2022-07-23T02:26:42;14.90;99.90
7427;DHT22;3755;59.316;18.092;2022-07-23T02:29:12;14.90;99.90
7427;DHT22;3755;59.316;18.092;2022-07-23T02:31:41;14.80;99.90
7427;DHT22;3755;59.316;18.092;2022-07-23T02:34:08;14.80;99.90
7427;DHT22;3755;59.316;18.092;2022-07-23T02:36:37;14.80;99.90
7427;DHT22;3755;59.316;18.092;2022-07-23T02:39:05;14.70;99.90
7427;DHT22;3755;59.316;18.092;2022-07-23T02:41:33;14.70;99.90
7427;DHT22;3755;59.316;18.092;2022-07-23T02:44:00;14.70;99.90
7427;DHT22;3755;59.316;18.092;2022-07-23T02:46:27;14.70;99.90
7427;DHT22;3755;59.316;18.092;2022-07-23T02:48:56;14.60;99.90
7427;DHT22;3755;59.316;18.092;2022-07-23T02:51:23;14.70;99.90
7427;DHT22;3755;59.316;18.092;2022-07-23T02:53:51;14.60;99.90
7427;DHT22;3755;59.316;18.092;2022-07-23T02:56:21;14.70;99.90
7427;DHT22;3755;59.316;18.092;2022-07-23T02:58:48;14.80;99.90
7427;DHT22;3755;59.316;18.092;2022-07-23T03:01:15;14.80;99.90
7427;DHT22;3755;59.316;18.092;2022-07-23T03:03:42;14.80;99.90
7427;DHT22;3755;59.316;18.092;2022-07-23T03:06:12;14.90;99.90
7427;DHT22;3755;59.316;18.092;2022-07-23T03:08:39;14.90;99.90
7427;DHT22;3755;59.316;18.092;2022-07-23T03:11:06;15.00;99.90
7427;DHT22;3755;59.316;18.092;2022-07-23T03:13:36;14.90;99.90
7427;DHT22;3755;59.316;18.092;2022-07-23T03:16:04;14.90;99.90
7427;DHT22;3755;59.316;18.092;2022-07-23T03:18:31;14.90;99.90
7427;DHT22;3755;59.316;18.092;2022-07-23T03:20:59;14.80;99.90
7427;DHT22;3755;59.316;18.092;2022-07-23T03:23:27;14.70;99.90
7427;DHT22;3755;59.316;18.092;2022-07-23T03:25:54;14.60;99.90
7427;DHT22;3755;59.316;18.092;2022-07-23T03:28:21;14.60;99.90
7427;DHT22;3755;59.316;18.092;2022-07-23T03:30:49;14.60;99.90
7427;DHT22;3755;59.316;18.092;2022-07-23T03:33:17;14.60;99.90
7427;DHT22;3755;59.316;18.092;2022-07-23T03:35:44;14.60;99.90
7427;DHT22;3755;59.316;18.092;2022-07-23T03:38:12;14.60;99.90
7427;DHT22;3755;59.316;18.092;2022-07-23T03:40:41;14.60;99.90
7427;DHT22;3755;59.316;18.092;2022-07-23T03:43:08;14.50;99.90
7427;DHT22;3755;59.316;18.092;2022-07-23T03:45:35;14.50;99.90
7427;DHT22;3755;59.316;18.092;2022-07-23T03:48:02;14.60;99.90
7427;DHT22;3755;59.316;18.092;2022-07-23T03:50:29;14.60;99.90
7427;DHT22;3755;59.316;18.092;2022-07-23T03:52:56;14.50;99.90
7427;DHT22;3755;59.316;18.092;2022-07-23T03:55:23;14.50;99.90
7427;DHT22;3755;59.316;18.092;2022-07-23T03:57:52;14.60;99.90
7427;DHT22;3755;59.316;18.092;2022-07-23T04:00:19;14.70;99.90
7427;DHT22;3755;59.316;18.092;2022-07-23T04:02:46;14.70;99.90
7427;DHT22;3755;59.316;18.092;2022-07-23T04:05:13;14.80;99.90
7427;DHT22;3755;59.316;18.092;2022-07-23T04:07:40;14.90;99.90
7427;DHT22;3755;59.316;18.092;2022-07-23T04:10:07;15.00;99.90
7427;DHT22;3755;59.316;18.092;2022-07-23T04:12:35;15.10;99.90
7427;DHT22;3755;59.316;18.092;2022-07-23T04:15:07;15.10;99.90
7427;DHT22;3755;59.316;18.092;2022-07-23T04:17:35;15.00;99.90
7427;DHT22;3755;59.316;18.092;2022-07-23T04:20:02;15.00;99.90
7427;DHT22;3755;59.316;18.092;2022-07-23T04:22:29;14.90;99.90
7427;DHT22;3755;59.316;18.092;2022-07-23T04:24:56;14.90;99.90
7427;DHT22;3755;59.316;18.092;2022-07-23T04:27:23;15.00;99.90
7427;DHT22;3755;59.316;18.092;2022-07-23T04:29:51;15.10;99.90
7427;DHT22;3755;59.316;18.092;2022-07-23T04:32:20;15.10;99.90
7427;DHT22;3755;59.316;18.092;2022-07-23T04:34:47;15.10;99.90
7427;DHT22;3755;59.316;18.092;2022-07-23T04:37:14;15.10;99.90
7427;DHT22;3755;59.316;18.092;2022-07-23T04:39:41;15.10;99.90
7427;DHT22;3755;59.316;18.092;2022-07-23T04:42:08;15.20;99.90
7427;DHT22;3755;59.316;18.092;2022-07-23T04:44:36;15.10;99.90
7427;DHT22;3755;59.316;18.092;2022-07-23T04:47:03;15.20;99.90
7427;DHT22;3755;59.316;18.092;2022-07-23T04:49:32;15.20;99.90
7427;DHT22;3755;59.316;18.092;2022-07-23T04:51:59;15.10;99.90
7427;DHT22;3755;59.316;18.092;2022-07-23T04:54:26;15.10;99.90
7427;DHT22;3755;59.316;18.092;2022-07-23T04:56:53;15.20;99.90
7427;DHT22;3755;59.316;18.092;2022-07-23T04:59:20;15.20;99.90
7427;DHT22;3755;59.316;18.092;2022-07-23T05:01:47;15.10;99.90
7427;DHT22;3755;59.316;18.092;2022-07-23T05:04:14;15.10;99.90
7427;DHT22;3755;59.316;18.092;2022-07-23T05:06:43;15.10;99.90
7427;DHT22;3755;59.316;18.092;2022-07-23T05:09:10;15.20;99.90
7427;DHT22;3755;59.316;18.092;2022-07-23T05:11:37;15.20;99.90
7427;DHT22;3755;59.316;18.092;2022-07-23T05:14:04;15.30;99.90
7427;DHT22;3755;59.316;18.092;2022-07-23T05:16:31;15.30;99.90
7427;DHT22;3755;59.316;18.092;2022-07-23T05:18:58;15.40;99.90
7427;DHT22;3755;59.316;18.092;2022-07-23T05:21:25;15.40;99.90
7427;DHT22;3755;59.316;18.092;2022-07-23T05:23:53;15.40;99.90
7427;DHT22;3755;59.316;18.092;2022-07-23T05:26:20;15.30;99.90
7427;DHT22;3755;59.316;18.092;2022-07-23T05:28:47;15.20;99.90
7427;DHT22;3755;59.316;18.092;2022-07-23T05:31:14;15.20;99.90
7427;DHT22;3755;59.316;18.092;2022-07-23T05:33:41;15.30;99.90
7427;DHT22;3755;59.316;18.092;2022-07-23T05:36:09;15.20;99.90
7427;DHT22;3755;59.316;18.092;2022-07-23T05:38:36;15.30;99.90
7427;DHT22;3755;59.316;18.092;2022-07-23T05:41:05;15.10;99.90
7427;DHT22;3755;59.316;18.092;2022-07-23T05:43:32;15.20;99.90
7427;DHT22;3755;59.316;18.092;2022-07-23T05:45:59;15.20;99.90
7427;DHT22;3755;59.316;18.092;2022-07-23T05:48:26;15.30;99.90
7427;DHT22;3755;59.316;18.092;2022-07-23T05:50:53;15.40;99.90
7427;DHT22;3755;59.316;18.092;2022-07-23T05:53:20;15.60;99.90
7427;DHT22;3755;59.316;18.092;2022-07-23T05:55:47;15.60;99.90
7427;DHT22;3755;59.316;18.092;2022-07-23T05:58:16;15.60;99.90
7427;DHT22;3755;59.316;18.092;2022-07-23T06:00:43;15.70;99.90
7427;DHT22;3755;59.316;18.092;2022-07-23T06:03:10;15.70;99.90
7427;DHT22;3755;59.316;18.092;2022-07-23T06:05:37;15.90;99.90
7427;DHT22;3755;59.316;18.092;2022-07-23T06:08:04;15.90;99.90
7427;DHT22;3755;59.316;18.092;2022-07-23T06:10:31;16.00;99.90
7427;DHT22;3755;59.316;18.092;2022-07-23T06:12:59;16.00;99.90
7427;DHT22;3755;59.316;18.092;2022-07-23T06:15:29;15.90;99.90
7427;DHT22;3755;59.316;18.092;2022-07-23T06:17:56;15.90;99.90
7427;DHT22;3755;59.316;18.092;2022-07-23T06:20:23;16.00;99.90
7427;DHT22;3755;59.316;18.092;2022-07-23T06:22:51;16.00;99.90
7427;DHT22;3755;59.316;18.092;2022-07-23T06:25:18;16.10;99.90
7427;DHT22;3755;59.316;18.092;2022-07-23T06:27:48;16.10;99.90
7427;DHT22;3755;59.316;18.092;2022-07-23T06:30:15;16.20;99.90
7427;DHT22;3755;59.316;18.092;2022-07-23T06:32:44;16.20;99.90
7427;DHT22;3755;59.316;18.092;2022-07-23T06:35:11;16.10;99.90
7427;DHT22;3755;59.316;18.092;2022-07-23T06:37:38;16.00;99.90
7427;DHT22;3755;59.316;18.092;2022-07-23T06:40:06;16.00;99.90
7427;DHT22;3755;59.316;18.092;2022-07-23T06:42:33;16.00;99.90
7427;DHT22;3755;59.316;18.092;2022-07-23T06:45:02;16.00;99.90
7427;DHT22;3755;59.316;18.092;2022-07-23T06:47:29;16.00;99.90
7427;DHT22;3755;59.316;18.092;2022-07-23T06:49:58;16.00;99.90
7427;DHT22;3755;59.316;18.092;2022-07-23T06:52:25;16.10;99.90
7427;DHT22;3755;59.316;18.092;2022-07-23T06:54:53;16.20;99.90
7427;DHT22;3755;59.316;18.092;2022-07-23T06:57:20;16.30;99.90
7427;DHT22;3755;59.316;18.092;2022-07-23T06:59:47;16.30;99.90
7427;DHT22;3755;59.316;18.092;2022-07-23T07:02:14;16.40;99.90
7427;DHT22;3755;59.316;18.092;2022-07-23T07:04:41;16.60;99.90
7427;DHT22;3755;59.316;18.092;2022-07-23T07:07:10;16.90;99.90
7427;DHT22;3755;59.316;18.092;2022-07-23T07:09:37;17.10;99.90
7427;DHT22;3755;59.316;18.092;2022-07-23T07:12:05;17.10;99.90
7427;DHT22;3755;59.316;18.092;2022-07-23T07:14:32;16.90;99.90
7427;DHT22;3755;59.316;18.092;2022-07-23T07:16:59;16.90;99.90
7427;DHT22;3755;59.316;18.092;2022-07-23T07:19:27;16.90;99.90
7427;DHT22;3755;59.316;18.092;2022-07-23T07:21:54;16.90;99.90
7427;DHT22;3755;59.316;18.092;2022-07-23T07:24:28;16.90;99.90
7427;DHT22;3755;59.316;18.092;2022-07-23T07:26:55;17.00;99.90
7427;DHT22;3755;59.316;18.092;2022-07-23T07:29:22;17.20;99.90
7427;DHT22;3755;59.316;18.092;2022-07-23T07:31:49;17.40;99.90
7427;DHT22;3755;59.316;18.092;2022-07-23T07:34:16;17.70;99.90
7427;DHT22;3755;59.316;18.092;2022-07-23T07:36:43;17.80;99.90
7427;DHT22;3755;59.316;18.092;2022-07-23T07:39:10;17.80;99.90
7427;DHT22;3755;59.316;18.092;2022-07-23T07:41:41;17.90;99.90
7427;DHT22;3755;59.316;18.092;2022-07-23T07:44:09;17.90;99.90
7427;DHT22;3755;59.316;18.092;2022-07-23T07:46:36;17.90;99.90
7427;DHT22;3755;59.316;18.092;2022-07-23T07:49:03;17.90;99.90
7427;DHT22;3755;59.316;18.092;2022-07-23T07:51:33;17.90;99.90
7427;DHT22;3755;59.316;18.092;2022-07-23T07:54:00;17.80;99.90
7427;DHT22;3755;59.316;18.092;2022-07-23T07:56:27;17.60;99.90
7427;DHT22;3755;59.316;18.092;2022-07-23T07:58:55;17.70;99.90
7427;DHT22;3755;59.316;18.092;2022-07-23T08:01:22;17.50;99.90
7427;DHT22;3755;59.316;18.092;2022-07-23T08:03:50;17.20;99.90
7427;DHT22;3755;59.316;18.092;2022-07-23T08:06:17;17.20;99.90
7427;DHT22;3755;59.316;18.092;2022-07-23T08:08:44;17.20;99.90
7427;DHT22;3755;59.316;18.092;2022-07-23T08:11:12;17.20;99.90
7427;DHT22;3755;59.316;18.092;2022-07-23T08:13:40;17.10;99.90
7427;DHT22;3755;59.316;18.092;2022-07-23T08:16:11;17.20;99.90
7427;DHT22;3755;59.316;18.092;2022-07-23T08:18:38;17.30;99.90
7427;DHT22;3755;59.316;18.092;2022-07-23T08:21:06;17.20;99.90
7427;DHT22;3755;59.316;18.092;2022-07-23T08:23:33;17.20;99.90
7427;DHT22;3755;59.316;18.092;2022-07-23T08:26:01;17.30;99.90
7427;DHT22;3755;59.316;18.092;2022-07-23T08:28:28;17.20;99.90
7427;DHT22;3755;59.316;18.092;2022-07-23T08:31:01;17.10;99.90
7427;DHT22;3755;59.316;18.092;2022-07-23T08:33:34;17.10;99.90
7427;DHT22;3755;59.316;18.092;2022-07-23T08:36:03;17.00;99.90
7427;DHT22;3755;59.316;18.092;2022-07-23T08:38:30;17.20;99.90
7427;DHT22;3755;59.316;18.092;2022-07-23T08:40:59;17.30;99.90
7427;DHT22;3755;59.316;18.092;2022-07-23T08:43:28;17.40;99.90
7427;DHT22;3755;59.316;18.092;2022-07-23T08:46:00;17.40;99.90
7427;DHT22;3755;59.316;18.092;2022-07-23T08:48:29;17.50;99.90
7427;DHT22;3755;59.316;18.092;2022-07-23T08:50:59;17.50;99.90
7427;DHT22;3755;59.316;18.092;2022-07-23T08:53:27;17.50;99.90
7427;DHT22;3755;59.316;18.092;2022-07-23T08:55:57;17.60;99.90
7427;DHT22;3755;59.316;18.092;2022-07-23T08:58:24;17.60;99.90
7427;DHT22;3755;59.316;18.092;2022-07-23T09:00:52;17.70;99.90
7427;DHT22;3755;59.316;18.092;2022-07-23T09:03:21;17.80;99.90
7427;DHT22;3755;59.316;18.092;2022-07-23T09:05:50;17.90;99.90
7427;DHT22;3755;59.316;18.092;2022-07-23T09:08:20;18.00;99.90
7427;DHT22;3755;59.316;18.092;2022-07-23T09:10:50;18.10;99.90
7427;DHT22;3755;59.316;18.092;2022-07-23T09:13:35;18.00;99.90
7427;DHT22;3755;59.316;18.092;2022-07-23T09:16:05;17.90;99.90
7427;DHT22;3755;59.316;18.092;2022-07-23T09:18:36;17.90;99.90
7427;DHT22;3755;59.316;18.092;2022-07-23T09:21:18;17.70;99.90
7427;DHT22;3755;59.316;18.092;2022-07-23T09:23:51;17.80;99.90
7427;DHT22;3755;59.316;18.092;2022-07-23T09:26:36;17.70;99.90
7427;DHT22;3755;59.316;18.092;2022-07-23T09:29:06;17.70;99.90
7427;DHT22;3755;59.316;18.092;2022-07-23T09:31:41;17.70;99.90
7427;DHT22;3755;59.316;18.092;2022-07-23T09:34:12;17.80;99.90
7427;DHT22;3755;59.316;18.092;2022-07-23T09:36:40;17.80;99.90
7427;DHT22;3755;59.316;18.092;2022-07-23T09:39:11;17.90;99.90
7427;DHT22;3755;59.316;18.092;2022-07-23T09:41:41;18.00;99.90
7427;DHT22;3755;59.316;18.092;2022-07-23T09:44:10;18.20;99.90
7427;DHT22;3755;59.316;18.092;2022-07-23T09:46:39;18.20;99.90
7427;DHT22;3755;59.316;18.092;2022-07-23T09:49:15;18.30;99.90
7427;DHT22;3755;59.316;18.092;2022-07-23T09:51:51;18.30;99.90
7427;DHT22;3755;59.316;18.092;2022-07-23T09:54:26;18.40;99.90
7427;DHT22;3755;59.316;18.092;2022-07-23T09:56:55;18.50;99.90
7427;DHT22;3755;59.316;18.092;2022-07-23T09:59:24;18.60;99.90
7427;DHT22;3755;59.316;18.092;2022-07-23T10:01:54;18.90;99.90
7427;DHT22;3755;59.316;18.092;2022-07-23T10:04:22;19.20;99.90
7427;DHT22;3755;59.316;18.092;2022-07-23T10:06:54;19.30;99.90
7427;DHT22;3755;59.316;18.092;2022-07-23T10:09:26;18.90;99.90
7427;DHT22;3755;59.316;18.092;2022-07-23T10:11:58;18.60;99.90
7427;DHT22;3755;59.316;18.092;2022-07-23T10:14:42;18.30;99.90
7427;DHT22;3755;59.316;18.092;2022-07-23T10:17:10;18.00;99.90
7427;DHT22;3755;59.316;18.092;2022-07-23T10:19:38;17.90;99.90
7427;DHT22;3755;59.316;18.092;2022-07-23T10:22:08;17.90;99.90
7427;DHT22;3755;59.316;18.092;2022-07-23T10:24:58;17.80;99.90
7427;DHT22;3755;59.316;18.092;2022-07-23T10:27:53;17.90;99.90
7427;DHT22;3755;59.316;18.092;2022-07-23T10:30:30;17.90;99.90
7427;DHT22;3755;59.316;18.092;2022-07-23T10:33:09;17.90;99.90
7427;DHT22;3755;59.316;18.092;2022-07-23T10:35:49;17.90;99.90
7427;DHT22;3755;59.316;18.092;2022-07-23T10:38:21;17.90;99.90
7427;DHT22;3755;59.316;18.092;2022-07-23T10:40:56;17.90;99.90
7427;DHT22;3755;59.316;18.092;2022-07-23T10:43:24;17.80;99.90
7427;DHT22;3755;59.316;18.092;2022-07-23T10:45:52;17.80;99.90
7427;DHT22;3755;59.316;18.092;2022-07-23T10:48:21;17.70;99.90
7427;DHT22;3755;59.316;18.092;2022-07-23T10:51:09;17.60;99.90
7427;DHT22;3755;59.316;18.092;2022-07-23T10:53:59;17.60;99.90
7427;DHT22;3755;59.316;18.092;2022-07-23T11:00:18;17.70;99.90
7427;DHT22;3755;59.316;18.092;2022-07-23T11:02:48;17.80;99.90
7427;DHT22;3755;59.316;18.092;2022-07-23T11:05:17;17.80;99.90
7427;DHT22;3755;59.316;18.092;2022-07-23T11:10:56;17.60;99.90
7427;DHT22;3755;59.316;18.092;2022-07-23T11:13:44;17.60;99.90
7427;DHT22;3755;59.316;18.092;2022-07-23T11:16:21;17.60;99.90
7427;DHT22;3755;59.316;18.092;2022-07-23T11:18:59;17.50;99.90
7427;DHT22;3755;59.316;18.092;2022-07-23T11:22:00;17.50;99.90
7427;DHT22;3755;59.316;18.092;2022-07-23T11:24:27;17.50;99.90
7427;DHT22;3755;59.316;18.092;2022-07-23T11:27:03;17.30;99.90
7427;DHT22;3755;59.316;18.092;2022-07-23T11:29:48;17.20;99.90
7427;DHT22;3755;59.316;18.092;2022-07-23T11:32:36;17.20;99.90
7427;DHT22;3755;59.316;18.092;2022-07-23T11:35:19;17.10;99.90
7427;DHT22;3755;59.316;18.092;2022-07-23T11:37:48;17.20;99.90
7427;DHT22;3755;59.316;18.092;2022-07-23T11:40:20;17.10;99.90
7427;DHT22;3755;59.316;18.092;2022-07-23T11:42:58;17.10;99.90
7427;DHT22;3755;59.316;18.092;2022-07-23T11:45:32;17.10;99.90
7427;DHT22;3755;59.316;18.092;2022-07-23T11:48:03;17.00;99.90
7427;DHT22;3755;59.316;18.092;2022-07-23T11:50:31;17.10;99.90
7427;DHT22;3755;59.316;18.092;2022-07-23T11:53:00;17.00;99.90
7427;DHT22;3755;59.316;18.092;2022-07-23T11:55:29;17.10;99.90
7427;DHT22;3755;59.316;18.092;2022-07-23T11:57:56;17.10;99.90
7427;DHT22;3755;59.316;18.092;2022-07-23T12:00:28;17.10;99.90
7427;DHT22;3755;59.316;18.092;2022-07-23T12:02:57;17.10;99.90
7427;DHT22;3755;59.316;18.092;2022-07-23T12:05:30;17.10;99.90
7427;DHT22;3755;59.316;18.092;2022-07-23T12:07:58;17.10;99.90
7427;DHT22;3755;59.316;18.092;2022-07-23T12:10:27;17.00;99.90
7427;DHT22;3755;59.316;18.092;2022-07-23T12:12:56;17.00;99.90
7427;DHT22;3755;59.316;18.092;2022-07-23T12:15:25;16.90;99.90
7427;DHT22;3755;59.316;18.092;2022-07-23T12:17:53;17.00;99.90
7427;DHT22;3755;59.316;18.092;2022-07-23T12:20:22;17.00;99.90
7427;DHT22;3755;59.316;18.092;2022-07-23T12:22:53;17.00;99.90
7427;DHT22;3755;59.316;18.092;2022-07-23T12:25:25;17.10;99.90
7427;DHT22;3755;59.316;18.092;2022-07-23T12:28:04;17.10;99.90
7427;DHT22;3755;59.316;18.092;2022-07-23T12:30:34;17.10;99.90
7427;DHT22;3755;59.316;18.092;2022-07-23T12:33:02;17.00;99.90
7427;DHT22;3755;59.316;18.092;2022-07-23T12:35:35;16.80;99.90
7427;DHT22;3755;59.316;18.092;2022-07-23T12:38:06;16.90;99.90
7427;DHT22;3755;59.316;18.092;2022-07-23T12:40:36;16.90;99.90
7427;DHT22;3755;59.316;18.092;2022-07-23T12:43:06;16.90;99.90
7427;DHT22;3755;59.316;18.092;2022-07-23T12:45:45;17.00;99.90
7427;DHT22;3755;59.316;18.092;2022-07-23T12:48:20;17.00;99.90
7427;DHT22;3755;59.316;18.092;2022-07-23T12:50:50;17.00;99.90
7427;DHT22;3755;59.316;18.092;2022-07-23T12:53:28;17.00;99.90
7427;DHT22;3755;59.316;18.092;2022-07-23T12:56:01;16.90;99.90
7427;DHT22;3755;59.316;18.092;2022-07-23T12:58:41;17.10;99.90
7427;DHT22;3755;59.316;18.092;2022-07-23T13:01:09;16.90;99.90
7427;DHT22;3755;59.316;18.092;2022-07-23T13:03:39;16.90;99.90
7427;DHT22;3755;59.316;18.092;2022-07-23T13:06:08;16.90;99.90
7427;DHT22;3755;59.316;18.092;2022-07-23T13:08:42;16.90;99.90
7427;DHT22;3755;59.316;18.092;2022-07-23T13:11:09;16.90;99.90
7427;DHT22;3755;59.316;18.092;2022-07-23T13:13:36;16.90;99.90
7427;DHT22;3755;59.316;18.092;2022-07-23T13:16:04;17.00;99.90
7427;DHT22;3755;59.316;18.092;2022-07-23T13:18:31;17.10;99.90
7427;DHT22;3755;59.316;18.092;2022-07-23T13:21:01;17.10;99.90
7427;DHT22;3755;59.316;18.092;2022-07-23T13:23:29;16.90;99.90
7427;DHT22;3755;59.316;18.092;2022-07-23T13:25:58;16.80;99.90
7427;DHT22;3755;59.316;18.092;2022-07-23T13:28:25;16.70;99.90
7427;DHT22;3755;59.316;18.092;2022-07-23T13:30:53;16.70;99.90
7427;DHT22;3755;59.316;18.092;2022-07-23T13:33:22;16.80;99.90
7427;DHT22;3755;59.316;18.092;2022-07-23T13:35:51;16.90;99.90
7427;DHT22;3755;59.316;18.092;2022-07-23T13:38:21;17.00;99.90
7427;DHT22;3755;59.316;18.092;2022-07-23T13:40:52;16.90;99.90
7427;DHT22;3755;59.316;18.092;2022-07-23T13:43:24;16.90;99.90
7427;DHT22;3755;59.316;18.092;2022-07-23T13:45:56;16.90;99.90
7427;DHT22;3755;59.316;18.092;2022-07-23T13:48:24;17.10;99.90
7427;DHT22;3755;59.316;18.092;2022-07-23T13:50:51;17.20;99.90
7427;DHT22;3755;59.316;18.092;2022-07-23T13:53:20;17.20;99.90
7427;DHT22;3755;59.316;18.092;2022-07-23T13:55:49;17.40;99.90
7427;DHT22;3755;59.316;18.092;2022-07-23T13:58:19;17.60;99.90
7427;DHT22;3755;59.316;18.092;2022-07-23T14:00:49;17.70;99.90
7427;DHT22;3755;59.316;18.092;2022-07-23T14:03:17;17.90;99.90
7427;DHT22;3755;59.316;18.092;2022-07-23T14:05:45;17.90;99.90
7427;DHT22;3755;59.316;18.092;2022-07-23T14:08:13;17.90;99.90
7427;DHT22;3755;59.316;18.092;2022-07-23T14:10:40;18.00;99.90
7427;DHT22;3755;59.316;18.092;2022-07-23T14:13:08;17.90;99.90
7427;DHT22;3755;59.316;18.092;2022-07-23T14:15:36;17.70;99.90
7427;DHT22;3755;59.316;18.092;2022-07-23T14:18:06;17.60;99.90
7427;DHT22;3755;59.316;18.092;2022-07-23T14:20:34;17.60;99.90
7427;DHT22;3755;59.316;18.092;2022-07-23T14:23:01;17.50;99.90
7427;DHT22;3755;59.316;18.092;2022-07-23T14:25:30;17.30;99.90
7427;DHT22;3755;59.316;18.092;2022-07-23T14:28:00;17.30;99.90
7427;DHT22;3755;59.316;18.092;2022-07-23T14:30:28;17.40;99.90
7427;DHT22;3755;59.316;18.092;2022-07-23T14:32:57;17.40;99.90
7427;DHT22;3755;59.316;18.092;2022-07-23T14:35:24;17.40;99.90
7427;DHT22;3755;59.316;18.092;2022-07-23T14:37:51;17.20;99.90
7427;DHT22;3755;59.316;18.092;2022-07-23T14:40:18;17.20;99.90
7427;DHT22;3755;59.316;18.092;2022-07-23T14:42:45;17.30;99.90
7427;DHT22;3755;59.316;18.092;2022-07-23T14:45:12;17.30;99.90
7427;DHT22;3755;59.316;18.092;2022-07-23T14:47:39;17.30;99.90
7427;DHT22;3755;59.316;18.092;2022-07-23T14:50:08;17.40;99.90
7427;DHT22;3755;59.316;18.092;2022-07-23T14:52:36;17.30;99.90
7427;DHT22;3755;59.316;18.092;2022-07-23T14:55:04;17.20;99.90
7427;DHT22;3755;59.316;18.092;2022-07-23T14:57:32;17.20;99.90
7427;DHT22;3755;59.316;18.092;2022-07-23T14:59:59;17.10;99.90
7427;DHT22;3755;59.316;18.092;2022-07-23T15:02:26;17.10;99.90
7427;DHT22;3755;59.316;18.092;2022-07-23T15:04:53;17.10;99.90
7427;DHT22;3755;59.316;18.092;2022-07-23T15:07:21;17.10;99.90
7427;DHT22;3755;59.316;18.092;2022-07-23T15:09:48;17.10;99.90
7427;DHT22;3755;59.316;18.092;2022-07-23T15:12:17;17.10;99.90
7427;DHT22;3755;59.316;18.092;2022-07-23T15:14:44;17.10;99.90
7427;DHT22;3755;59.316;18.092;2022-07-23T15:17:13;17.10;99.90
7427;DHT22;3755;59.316;18.092;2022-07-23T15:19:40;17.00;99.90
7427;DHT22;3755;59.316;18.092;2022-07-23T15:22:09;17.20;99.90
7427;DHT22;3755;59.316;18.092;2022-07-23T15:24:37;17.40;99.90
7427;DHT22;3755;59.316;18.092;2022-07-23T15:27:04;17.40;99.90
7427;DHT22;3755;59.316;18.092;2022-07-23T15:29:31;17.40;99.90
7427;DHT22;3755;59.316;18.092;2022-07-23T15:32:00;17.40;99.90
7427;DHT22;3755;59.316;18.092;2022-07-23T15:34:28;17.30;99.90
7427;DHT22;3755;59.316;18.092;2022-07-23T15:37:00;17.20;99.90
7427;DHT22;3755;59.316;18.092;2022-07-23T15:39:28;17.20;99.90
7427;DHT22;3755;59.316;18.092;2022-07-23T15:42:03;17.20;99.90
7427;DHT22;3755;59.316;18.092;2022-07-23T15:44:30;17.10;99.90
7427;DHT22;3755;59.316;18.092;2022-07-23T15:46:58;17.20;99.90
7427;DHT22;3755;59.316;18.092;2022-07-23T15:49:25;17.30;99.90
7427;DHT22;3755;59.316;18.092;2022-07-23T15:51:53;17.30;99.90
7427;DHT22;3755;59.316;18.092;2022-07-23T15:54:22;17.40;99.90
7427;DHT22;3755;59.316;18.092;2022-07-23T15:56:49;17.50;99.90
7427;DHT22;3755;59.316;18.092;2022-07-23T15:59:19;17.60;99.90
7427;DHT22;3755;59.316;18.092;2022-07-23T16:01:46;17.60;99.90
7427;DHT22;3755;59.316;18.092;2022-07-23T16:04:15;17.60;99.90